Details From KLGA - La Guardia
To KBCT - Boca Raton
Flight Number -
Tags Generated
Created
Modified
Stats Distance 920 nm / 1,703 km
Max Altitude 0 ft / 0 m
Waypoints 6
Social Downloads 0
Likes 0
Share VATSIM

Download

Looking for another format? Having issues loading an existing format? Contact us
Advertisement - Login to hide

Notes

Generated

Route

KLGA DARTT SARHA 11588 RELTY KBCT

ID Type Via Altitude Latitude Longitude Leg Dist Tot Dist Heading (true) Name
O KLGA APT - 0 ft / 0 m 40.78229˚ -73.87852˚ - 0 nm - -
DARTT FIX - 0 ft / 0 m 37.29333˚ -75.50000˚ 222 nm 222 nm 200° / 199° -
SARHA FIX - 0 ft / 0 m 33.67141˚ -77.00358˚ 229 nm 452 nm 199° / 198° -
11588 FIX - 0 ft / 0 m 30.00025˚ -78.63371˚ 235 nm 688 nm 201° / 200° -
RELTY FIX - 0 ft / 0 m 26.67836˚ -79.99822˚ 212 nm 900 nm 200° / 200° -
O KBCT APT - 0 ft / 0 m 26.37231˚ -80.11439˚ 19 nm 919 nm 199° / 199° -

Altitude Profile

Advertisement - Login to hide

Weather


0- 5 10 15 20 25 30 35+ Temperature / ° C

Clouds and Precipitation
Forecast for 2018-06-24 00:00 UTC. Updated 4 hours ago

Ground ~20,000 ft ~40,000 ft Winds

KLGA

Details ICAO KLGA (LGA)
Name La Guardia
Region United States
Timezone America/New_York (UTC-4.0)
Stats Elevation 22 ft / 7 m (AMSL)
Location 40.777236° -73.872610°
Runways 2
Magnetic Variation 12.965° W

METAR

KLGA 240051Z 07006KT 10SM BKN009 OVC016 18/16 A2983 RMK AO2 SLP100 T01830161 $

Decode

TAF

KLGA 232325Z 2400/2506 07005KT P6SM VCSH OVC009 FM240500 VRB03KT 4SM BR OVC007 TEMPO 2406/2410 2SM BR BKN005 OVC007 FM241400 23006KT P6SM OVC020 FM241800 20010KT P6SM FEW100 BKN250 TEMPO 2422/2502 SHRA BKN040 FM250200 30008KT P6SM BKN250

Decode

Departure Runways

ID Width Length Bearing (true) Bearing (mag) Surface Threshold Offset Overrun Length
04 151 ft / 46 m 7,002 ft / 2,134 m 32.04° 45.01° Asphalt 0 ft / 0 m 312 ft / 95 m
13 151 ft / 46 m 6,990 ft / 2,130 m 122.24° 135.21° Asphalt 0 ft / 0 m 98 ft / 30 m
22 151 ft / 46 m 7,002 ft / 2,134 m 212.05° 225.02° Asphalt 0 ft / 0 m 92 ft / 28 m
31 151 ft / 46 m 6,990 ft / 2,130 m 302.26° 315.23° Asphalt 0 ft / 0 m 361 ft / 110 m

KBCT

Details ICAO KBCT (BCT)
Name Boca Raton
Region United States
Timezone America/New_York (UTC-4.0)
Stats Elevation 13 ft / 4 m (AMSL)
Location 26.378484° -80.107696°
Runways 1
Magnetic Variation 6.891° W

METAR

KBCT 240052Z 02004KT 10SM VCTS FEW120 28/23 A3003 RMK LTG DSNT NE

Decode

TAF

Not found

Destination Runways

ID Width Length Bearing (true) Bearing (mag) Surface Threshold Offset Overrun Length
05 150 ft / 46 m 6,283 ft / 1,915 m 44.19° 51.08° Asphalt 696 ft / 212 m 0 ft / 0 m
23 150 ft / 46 m 6,283 ft / 1,915 m 224.19° 231.08° Asphalt 378 ft / 115 m 0 ft / 0 m